createdAt,value
2019-01-28T00:00:46.778Z,2.57
2019-01-28T00:03:16.498Z,1.97
2019-01-28T00:05:46.041Z,2.40
2019-01-28T00:08:15.501Z,2.10
2019-01-28T00:10:45.063Z,2.20
2019-01-28T00:13:14.584Z,2.47
2019-01-28T00:15:44.844Z,1.90
2019-01-28T00:18:14.379Z,1.93
2019-01-28T00:20:43.859Z,1.80
2019-01-28T00:23:13.320Z,2.10
2019-01-28T00:25:42.803Z,2.10
2019-01-28T00:28:12.247Z,1.97
2019-01-28T00:30:41.739Z,1.83
2019-01-28T00:33:11.224Z,1.90
2019-01-28T00:35:40.713Z,1.93
2019-01-28T00:38:10.256Z,1.90
2019-01-28T00:40:39.710Z,1.90
2019-01-28T00:43:09.320Z,1.90
2019-01-28T00:45:38.892Z,1.90
2019-01-28T00:48:08.427Z,2.00
2019-01-28T00:50:37.900Z,2.23
2019-01-28T00:53:07.552Z,2.10
2019-01-28T00:55:37.030Z,2.00
2019-01-28T00:58:06.625Z,2.00
2019-01-28T01:00:36.236Z,2.00
2019-01-28T01:03:06.206Z,2.27
2019-01-28T01:05:35.660Z,1.93
2019-01-28T01:08:05.338Z,1.90
2019-01-28T01:10:34.808Z,2.00
2019-01-28T01:13:04.703Z,2.67
2019-01-28T01:15:34.186Z,2.20
2019-01-28T01:18:03.933Z,2.13
2019-01-28T01:20:33.419Z,2.43
2019-01-28T01:23:02.879Z,2.13
2019-01-28T01:25:32.461Z,2.07
2019-01-28T01:28:01.986Z,2.00
2019-01-28T01:30:31.521Z,1.90
2019-01-28T01:33:00.986Z,2.23
2019-01-28T01:35:30.471Z,2.27
2019-01-28T01:37:59.931Z,2.27
2019-01-28T01:40:29.398Z,1.90
2019-01-28T01:42:58.856Z,1.60
2019-01-28T01:45:28.349Z,1.90
2019-01-28T01:47:57.818Z,1.70
2019-01-28T01:50:27.269Z,1.80
2019-01-28T01:52:56.750Z,1.57
2019-01-28T01:55:26.235Z,1.63
2019-01-28T01:57:55.726Z,1.50
2019-01-28T02:00:25.319Z,1.40
2019-01-28T02:02:54.827Z,1.50
2019-01-28T02:05:24.273Z,1.07
2019-01-28T02:07:53.822Z,1.30
2019-01-28T02:10:23.442Z,1.17
2019-01-28T02:12:52.898Z,0.97
2019-01-28T02:15:22.397Z,1.00
2019-01-28T02:17:51.849Z,1.00
2019-01-28T02:20:21.337Z,1.10
2019-01-28T02:22:50.793Z,1.10
2019-01-28T02:25:20.334Z,1.00
2019-01-28T02:27:49.795Z,1.00
2019-01-28T02:30:19.564Z,1.40
2019-01-28T02:32:49.018Z,1.20
2019-01-28T02:35:18.535Z,1.27
2019-01-28T02:37:48.101Z,1.10
2019-01-28T02:40:18.796Z,1.30
2019-01-28T02:42:48.292Z,1.10
2019-01-28T02:45:18.120Z,1.17
2019-01-28T02:47:47.586Z,1.40
2019-01-28T02:50:18.477Z,1.47
2019-01-28T02:52:48.036Z,1.63
2019-01-28T02:55:17.911Z,1.40
2019-01-28T02:57:47.565Z,1.33
2019-01-28T03:00:20.495Z,1.43
2019-01-28T03:02:50.143Z,1.40
2019-01-28T03:05:19.833Z,1.20
2019-01-28T03:07:49.381Z,1.50
2019-01-28T03:10:23.017Z,1.60
2019-01-28T03:12:52.531Z,1.53
2019-01-28T03:15:22.251Z,1.40
2019-01-28T03:17:51.808Z,1.43
2019-01-28T03:20:21.499Z,1.70
2019-01-28T03:22:51.105Z,1.67
2019-01-28T03:25:20.826Z,1.60
2019-01-28T03:27:50.353Z,1.57
2019-01-28T03:30:21.369Z,2.00
2019-01-28T03:32:50.890Z,1.50
2019-01-28T03:35:20.502Z,1.47
2019-01-28T03:37:50.058Z,1.50
2019-01-28T03:40:22.822Z,1.50
2019-01-28T03:42:53.138Z,1.30
2019-01-28T03:45:23.642Z,1.50
2019-01-28T03:47:53.172Z,1.40
2019-01-28T03:50:22.880Z,1.40
2019-01-28T03:52:52.496Z,1.47
2019-01-28T03:55:22.032Z,1.57
2019-01-28T03:57:51.574Z,1.27
2019-01-28T04:00:27.664Z,1.33
2019-01-28T04:02:57.201Z,1.23
2019-01-28T04:05:26.747Z,1.13
2019-01-28T04:07:56.202Z,0.93
2019-01-28T04:10:26.141Z,1.20
2019-01-28T04:12:55.661Z,1.00
2019-01-28T04:15:27.544Z,1.07
2019-01-28T04:17:57.068Z,1.23
2019-01-28T04:20:26.920Z,1.20
2019-01-28T04:22:56.380Z,0.90
2019-01-28T04:25:25.917Z,1.23
2019-01-28T04:27:55.400Z,1.00
2019-01-28T04:30:27.278Z,1.10
2019-01-28T04:32:56.767Z,1.10
2019-01-28T04:35:26.384Z,1.50
2019-01-28T04:37:55.940Z,1.13
2019-01-28T04:40:25.399Z,1.10
2019-01-28T04:42:54.937Z,1.20
2019-01-28T04:45:24.436Z,1.53
2019-01-28T04:47:53.881Z,1.37
2019-01-28T04:50:23.523Z,1.57
2019-01-28T04:52:53.075Z,1.60
2019-01-28T04:55:22.556Z,1.37
2019-01-28T04:57:52.035Z,1.20
2019-01-28T05:00:26.585Z,1.53
2019-01-28T05:02:56.204Z,1.70
2019-01-28T05:05:25.753Z,1.70
2019-01-28T05:07:55.228Z,1.40
2019-01-28T05:10:24.850Z,1.70
2019-01-28T05:12:54.310Z,2.13
2019-01-28T05:15:23.967Z,1.40
2019-01-28T05:17:53.438Z,1.50
2019-01-28T05:20:24.732Z,1.47
2019-01-28T05:22:54.216Z,1.80
2019-01-28T05:25:23.765Z,1.80
2019-01-28T05:27:53.291Z,1.80
2019-01-28T05:30:24.865Z,1.90
2019-01-28T05:32:54.385Z,1.73
2019-01-28T05:35:24.593Z,1.60
2019-01-28T05:37:54.081Z,1.57
2019-01-28T05:40:26.026Z,1.30
2019-01-28T05:42:55.582Z,1.40
2019-01-28T05:45:25.777Z,1.40
2019-01-28T05:47:55.271Z,1.20
2019-01-28T05:50:24.879Z,1.17
2019-01-28T05:52:54.429Z,1.20
2019-01-28T05:55:23.959Z,1.70
2019-01-28T05:57:53.450Z,1.30
2019-01-28T06:00:28.426Z,1.00
2019-01-28T06:02:57.904Z,0.97
2019-01-28T06:05:27.527Z,1.10
2019-01-28T06:07:57.053Z,1.07
2019-01-28T06:10:26.560Z,0.97
2019-01-28T06:12:56.014Z,1.20
2019-01-28T06:15:25.638Z,1.20
2019-01-28T06:17:55.115Z,1.10
2019-01-28T06:20:26.418Z,1.20
2019-01-28T06:22:55.911Z,1.27
2019-01-28T06:25:25.449Z,1.30
2019-01-28T06:27:54.932Z,1.70
2019-01-28T06:30:33.239Z,1.50
2019-01-28T06:33:02.775Z,1.40
2019-01-28T06:35:32.319Z,1.87
2019-01-28T06:38:01.777Z,1.80
2019-01-28T06:40:35.716Z,1.80
2019-01-28T06:43:05.454Z,1.60
2019-01-28T06:45:34.949Z,1.73
2019-01-28T06:48:04.578Z,1.97
2019-01-28T06:50:34.147Z,1.67
2019-01-28T06:53:03.714Z,1.70
2019-01-28T06:55:33.207Z,1.40
2019-01-28T06:58:02.668Z,1.10
2019-01-28T07:00:35.392Z,1.23
2019-01-28T07:03:06.007Z,1.20
2019-01-28T07:05:35.530Z,1.10
2019-01-28T07:08:09.150Z,1.03
2019-01-28T07:10:38.755Z,1.00
2019-01-28T07:13:08.405Z,1.20
2019-01-28T07:15:39.172Z,1.07
2019-01-28T07:18:10.366Z,1.07
2019-01-28T07:20:39.786Z,1.10
2019-01-28T07:23:09.258Z,1.10
2019-01-28T07:25:38.721Z,1.27
2019-01-28T07:28:08.211Z,1.00
2019-01-28T07:30:38.330Z,1.40
2019-01-28T07:33:07.961Z,1.10
2019-01-28T07:35:37.504Z,1.10
2019-01-28T07:38:07.055Z,1.20
2019-01-28T07:40:36.583Z,1.23
2019-01-28T07:43:06.066Z,1.40
2019-01-28T07:45:44.839Z,1.40
2019-01-28T07:48:09.224Z,1.20
2019-01-28T07:50:38.755Z,1.17
2019-01-28T07:53:08.384Z,1.20
2019-01-28T07:55:37.935Z,1.57
2019-01-28T07:58:07.779Z,1.50
2019-01-28T08:00:37.294Z,1.60
2019-01-28T08:03:07.192Z,2.17
2019-01-28T08:05:36.897Z,2.40
2019-01-28T08:08:06.511Z,1.97
2019-01-28T08:10:36.043Z,1.50
2019-01-28T08:13:06.327Z,1.57
2019-01-28T08:15:35.874Z,1.60
2019-01-28T08:18:10.466Z,1.70
2019-01-28T08:20:36.737Z,1.47
2019-01-28T08:23:06.641Z,1.40
2019-01-28T08:25:36.277Z,1.50
2019-01-28T08:28:06.265Z,1.47
2019-01-28T08:30:37.621Z,1.60
2019-01-28T08:33:07.230Z,1.37
2019-01-28T08:35:37.227Z,1.30
2019-01-28T08:38:06.843Z,1.57
2019-01-28T08:40:36.470Z,1.60
2019-01-28T08:43:06.040Z,2.00
2019-01-28T08:45:35.646Z,1.73
2019-01-28T08:48:05.279Z,2.00
2019-01-28T08:50:34.810Z,2.00
2019-01-28T08:53:04.415Z,1.80
2019-01-28T08:55:34.050Z,2.03
2019-01-28T08:58:03.579Z,2.20
2019-01-28T09:00:39.065Z,2.13
2019-01-28T09:03:09.586Z,2.07
2019-01-28T09:05:39.483Z,1.87
2019-01-28T09:08:09.314Z,2.17
2019-01-28T09:10:39.224Z,2.30
2019-01-28T09:13:09.085Z,2.40
2019-01-28T09:15:38.634Z,2.70
2019-01-28T09:18:08.605Z,2.47
2019-01-28T09:20:38.329Z,2.47
2019-01-28T09:23:07.883Z,2.43
2019-01-28T09:25:37.518Z,2.40
2019-01-28T09:28:07.236Z,2.20
2019-01-28T09:30:37.383Z,2.30
2019-01-28T09:33:06.964Z,2.30
2019-01-28T09:35:36.528Z,2.43
2019-01-28T09:38:06.505Z,1.97
2019-01-28T09:40:37.919Z,2.40
2019-01-28T09:43:08.151Z,1.93
2019-01-28T09:45:40.952Z,2.33
2019-01-28T09:48:13.113Z,2.60
2019-01-28T09:50:42.922Z,2.30
2019-01-28T09:53:13.784Z,2.13
2019-01-28T09:55:43.325Z,2.23
2019-01-28T09:58:12.960Z,2.23
2019-01-28T10:00:48.185Z,2.17
2019-01-28T10:03:17.781Z,1.90
2019-01-28T10:05:47.349Z,1.70
2019-01-28T10:08:16.870Z,1.57
2019-01-28T10:10:46.505Z,1.83
2019-01-28T10:13:16.088Z,1.83
2019-01-28T10:15:45.726Z,1.73
2019-01-28T10:18:15.252Z,1.73
2019-01-28T10:20:46.736Z,1.90
2019-01-28T10:23:16.487Z,1.80
2019-01-28T10:25:46.352Z,1.50
2019-01-28T10:28:15.877Z,1.30
2019-01-28T10:30:46.669Z,1.60
2019-01-28T10:33:16.279Z,1.20
2019-01-28T10:35:46.173Z,1.30
2019-01-28T10:38:15.693Z,1.30
2019-01-28T10:40:45.918Z,1.40
2019-01-28T10:43:15.520Z,1.33
2019-01-28T10:45:45.229Z,1.10
2019-01-28T10:48:14.911Z,1.10
2019-01-28T10:50:44.554Z,1.07
2019-01-28T10:53:14.013Z,1.20
2019-01-28T10:55:43.627Z,1.40
2019-01-28T10:58:13.250Z,1.57
2019-01-28T11:00:46.363Z,1.30
2019-01-28T11:03:17.569Z,1.67
2019-01-28T11:05:47.180Z,1.70
2019-01-28T11:08:16.833Z,1.90
2019-01-28T11:10:46.562Z,1.53
2019-01-28T11:13:16.124Z,1.50
2019-01-28T11:15:45.760Z,1.53
2019-01-28T11:18:20.109Z,1.33
2019-01-28T11:20:49.840Z,1.63
2019-01-28T11:23:19.406Z,1.90
2019-01-28T11:25:49.272Z,1.37
2019-01-28T11:28:18.911Z,1.50
2019-01-28T11:30:54.723Z,1.73
2019-01-28T11:33:24.261Z,1.77
2019-01-28T11:35:54.119Z,2.03
2019-01-28T11:38:24.086Z,1.83
2019-01-28T11:40:53.650Z,1.70
2019-01-28T11:43:23.450Z,2.10
2019-01-28T11:45:57.134Z,1.60
2019-01-28T11:48:26.801Z,1.40
2019-01-28T11:50:56.459Z,1.63
2019-01-28T11:53:26.227Z,1.40
2019-01-28T11:55:55.709Z,1.40
2019-01-28T11:58:25.339Z,1.60
2019-01-28T12:01:01.514Z,1.97
2019-01-28T12:03:31.252Z,1.60
2019-01-28T12:06:00.727Z,1.70
2019-01-28T12:08:30.410Z,1.27
2019-01-28T12:10:59.955Z,1.53
2019-01-28T12:13:29.463Z,1.40
2019-01-28T12:15:59.025Z,1.60
2019-01-28T12:18:28.481Z,1.30
2019-01-28T12:20:57.978Z,1.33
2019-01-28T12:23:27.443Z,1.30
2019-01-28T12:25:57.052Z,1.20
2019-01-28T12:28:26.519Z,1.27
2019-01-28T12:30:56.002Z,1.40
2019-01-28T12:33:25.563Z,1.40
2019-01-28T12:35:55.032Z,1.40
2019-01-28T12:38:24.685Z,1.57
2019-01-28T12:40:54.202Z,1.40
2019-01-28T12:43:23.686Z,1.60
2019-01-28T12:45:53.229Z,1.30
2019-01-28T12:48:23.155Z,2.00
2019-01-28T12:50:52.803Z,1.50
2019-01-28T12:53:22.381Z,1.53
2019-01-28T12:55:51.844Z,1.80
2019-01-28T12:58:21.357Z,1.50
2019-01-28T13:00:55.417Z,1.60
2019-01-28T13:03:25.042Z,1.50
2019-01-28T13:05:54.668Z,1.47
2019-01-28T13:08:24.154Z,1.37
2019-01-28T13:10:53.704Z,1.20
2019-01-28T13:13:23.353Z,1.47
2019-01-28T13:15:53.067Z,1.40
2019-01-28T13:18:22.609Z,0.90
2019-01-28T13:20:52.239Z,1.10
2019-01-28T13:23:21.801Z,1.10
2019-01-28T13:25:51.432Z,1.00
2019-01-28T13:28:20.983Z,1.03
2019-01-28T13:30:50.493Z,1.10
2019-01-28T13:33:20.193Z,1.90
2019-01-28T13:35:49.714Z,1.37
2019-01-28T13:38:19.156Z,1.17
2019-01-28T13:40:48.613Z,1.27
2019-01-28T13:43:18.095Z,1.20
2019-01-28T13:45:47.732Z,1.00
2019-01-28T13:48:17.496Z,1.10
2019-01-28T13:50:47.063Z,1.00
2019-01-28T13:53:16.535Z,1.00
2019-01-28T13:55:45.999Z,1.10
2019-01-28T13:58:15.548Z,1.10
2019-01-28T14:00:45.116Z,1.03
2019-01-28T14:03:14.642Z,1.27
2019-01-28T14:05:44.209Z,1.27
2019-01-28T14:08:13.812Z,1.07
2019-01-28T14:10:43.439Z,1.00
2019-01-28T14:13:12.926Z,1.40
2019-01-28T14:15:42.572Z,1.17
2019-01-28T14:18:12.145Z,1.10
2019-01-28T14:20:42.260Z,1.43
2019-01-28T14:23:11.859Z,1.43
2019-01-28T14:25:41.523Z,1.53
2019-01-28T14:28:11.209Z,1.10
2019-01-28T14:30:45.745Z,1.37
2019-01-28T14:33:15.286Z,1.13
2019-01-28T14:35:44.954Z,1.17
2019-01-28T14:38:14.661Z,1.37
2019-01-28T14:40:44.316Z,1.30
2019-01-28T14:43:13.965Z,1.47
2019-01-28T14:45:43.504Z,1.50
2019-01-28T14:48:13.294Z,1.40
2019-01-28T14:50:42.839Z,1.53
2019-01-28T14:53:12.482Z,1.50
2019-01-28T14:55:42.076Z,1.37
2019-01-28T14:58:16.578Z,1.77
2019-01-28T15:00:44.770Z,1.70
2019-01-28T15:03:14.252Z,1.83
2019-01-28T15:05:43.859Z,1.90
2019-01-28T15:08:13.424Z,1.47
2019-01-28T15:10:43.071Z,1.97
2019-01-28T15:13:12.685Z,1.60
2019-01-28T15:15:42.437Z,2.00
2019-01-28T15:18:13.189Z,1.70
2019-01-28T15:20:42.797Z,1.43
2019-01-28T15:23:12.363Z,1.93
2019-01-28T15:25:42.168Z,1.70
2019-01-28T15:28:11.769Z,1.77
2019-01-28T15:30:41.435Z,1.93
2019-01-28T15:33:11.062Z,1.87
2019-01-28T15:35:40.754Z,1.90
2019-01-28T15:38:10.378Z,1.90
2019-01-28T15:40:40.072Z,1.90
2019-01-28T15:43:09.609Z,1.77
2019-01-28T15:45:41.994Z,1.90
2019-01-28T15:48:11.623Z,2.37
2019-01-28T15:50:41.281Z,2.00
2019-01-28T15:53:10.770Z,1.70
2019-01-28T15:55:41.749Z,1.83
2019-01-28T15:58:11.655Z,1.90
2019-01-28T16:00:43.822Z,1.93
2019-01-28T16:03:13.580Z,1.60
2019-01-28T16:05:43.236Z,1.83
2019-01-28T16:08:12.833Z,2.00
2019-01-28T16:10:42.400Z,1.50
2019-01-28T16:13:11.938Z,1.50
2019-01-28T16:15:44.646Z,1.60
2019-01-28T16:18:14.300Z,2.40
2019-01-28T16:20:43.941Z,1.87
2019-01-28T16:23:13.540Z,1.83
2019-01-28T16:25:43.112Z,1.87
2019-01-28T16:28:12.813Z,1.70
2019-01-28T16:30:42.439Z,1.80
2019-01-28T16:33:12.005Z,1.63
2019-01-28T16:35:41.568Z,1.90
2019-01-28T16:38:11.074Z,1.70
2019-01-28T16:40:40.547Z,1.47
2019-01-28T16:43:10.119Z,1.80
2019-01-28T16:45:39.631Z,1.77
2019-01-28T16:48:09.364Z,1.63
2019-01-28T16:50:39.085Z,1.47
2019-01-28T16:53:08.994Z,1.60
2019-01-28T16:55:38.714Z,1.67
2019-01-28T16:58:08.719Z,1.90
2019-01-28T17:00:40.644Z,1.43
2019-01-28T17:03:11.075Z,1.70
2019-01-28T17:05:41.475Z,1.67
2019-01-28T17:08:11.097Z,1.17
2019-01-28T17:10:40.755Z,1.50
2019-01-28T17:13:10.267Z,1.40
2019-01-28T17:15:39.811Z,1.43
2019-01-28T17:18:09.455Z,1.30
2019-01-28T17:20:39.171Z,1.50
2019-01-28T17:23:08.701Z,1.60
2019-01-28T17:25:44.453Z,1.60
2019-01-28T17:28:14.397Z,1.50
2019-01-28T17:30:49.455Z,1.50
2019-01-28T17:33:19.107Z,1.57
2019-01-28T17:35:48.800Z,1.50
2019-01-28T17:38:18.501Z,1.60
2019-01-28T17:40:48.131Z,1.30
2019-01-28T17:43:17.700Z,1.63
2019-01-28T17:45:47.345Z,1.90
2019-01-28T17:48:17.001Z,1.33
2019-01-28T17:50:46.623Z,1.57
2019-01-28T17:53:16.244Z,1.70
2019-01-28T17:55:45.804Z,1.60
2019-01-28T17:58:15.405Z,2.10
2019-01-28T18:00:49.272Z,1.50
2019-01-28T18:03:18.995Z,1.77
2019-01-28T18:05:48.595Z,1.47
2019-01-28T18:08:18.110Z,1.90
2019-01-28T18:10:47.746Z,1.80
2019-01-28T18:13:17.237Z,1.70
2019-01-28T18:15:46.784Z,1.50
2019-01-28T18:18:16.547Z,1.80
2019-01-28T18:20:51.698Z,2.27
2019-01-28T18:23:19.061Z,1.50
2019-01-28T18:25:48.593Z,1.37
2019-01-28T18:28:18.196Z,1.40
2019-01-28T18:30:51.596Z,1.27
2019-01-28T18:33:21.124Z,1.70
2019-01-28T18:35:50.799Z,1.50
2019-01-28T18:38:20.284Z,1.97
2019-01-28T18:40:49.949Z,1.60
2019-01-28T18:43:19.417Z,1.50
2019-01-28T18:45:49.055Z,1.70
2019-01-28T18:48:18.514Z,1.27
2019-01-28T18:50:48.094Z,1.80
2019-01-28T18:53:17.737Z,1.50
2019-01-28T18:55:47.305Z,1.70
2019-01-28T18:58:16.962Z,1.60
2019-01-28T19:00:46.491Z,1.40
2019-01-28T19:03:16.056Z,1.30
2019-01-28T19:06:01.971Z,1.43
2019-01-28T19:08:44.754Z,1.30
2019-01-28T19:11:14.233Z,1.97
2019-01-28T19:14:03.257Z,1.57
2019-01-28T19:16:35.776Z,1.50
2019-01-28T19:19:07.320Z,1.40
2019-01-28T19:21:56.154Z,1.10
2019-01-28T19:24:25.779Z,1.20
2019-01-28T19:26:55.253Z,1.17
2019-01-28T19:29:24.821Z,1.50
2019-01-28T19:31:54.305Z,1.77
2019-01-28T19:34:23.946Z,1.63
2019-01-28T19:36:53.490Z,1.30
2019-01-28T19:39:22.995Z,1.70
2019-01-28T19:41:52.593Z,1.50
2019-01-28T19:44:22.086Z,1.40
2019-01-28T19:46:51.730Z,1.43
2019-01-28T19:49:21.211Z,1.20
2019-01-28T19:51:50.694Z,1.27
2019-01-28T19:54:20.203Z,1.80
2019-01-28T19:56:49.795Z,1.70
2019-01-28T19:59:19.385Z,2.00
2019-01-28T20:01:48.930Z,1.43
2019-01-28T20:04:18.444Z,1.47
2019-01-28T20:06:47.911Z,1.33
2019-01-28T20:09:17.526Z,1.90
2019-01-28T20:11:47.106Z,1.40
2019-01-28T20:14:16.716Z,1.30
2019-01-28T20:16:46.299Z,1.50
2019-01-28T20:19:15.766Z,1.53
2019-01-28T20:21:45.302Z,1.80
2019-01-28T20:24:14.874Z,1.27
2019-01-28T20:26:44.538Z,1.37
2019-01-28T20:29:13.994Z,1.30
2019-01-28T20:31:43.515Z,1.80
2019-01-28T20:34:13.121Z,1.77
2019-01-28T20:36:42.672Z,1.50
2019-01-28T20:39:12.174Z,1.40
2019-01-28T20:41:41.786Z,1.90
2019-01-28T20:44:11.340Z,1.43
2019-01-28T20:46:40.980Z,1.87
2019-01-28T20:49:10.533Z,1.60
2019-01-28T20:51:40.107Z,1.80
2019-01-28T20:54:09.609Z,1.70
2019-01-28T20:56:39.119Z,1.90
2019-01-28T20:59:08.649Z,1.97
2019-01-28T21:01:38.148Z,2.00
2019-01-28T21:04:07.722Z,2.17
2019-01-28T21:06:37.319Z,2.27
2019-01-28T21:09:08.763Z,2.20
2019-01-28T21:11:38.346Z,2.00
2019-01-28T21:14:07.800Z,2.10
2019-01-28T21:16:37.362Z,2.37
2019-01-28T21:19:06.872Z,2.40
2019-01-28T21:21:41.745Z,2.53
2019-01-28T21:24:07.899Z,2.80
2019-01-28T21:26:37.372Z,2.57
2019-01-28T21:29:06.995Z,2.40
2019-01-28T21:31:36.639Z,2.60
2019-01-28T21:34:06.326Z,2.80
2019-01-28T21:36:40.230Z,2.53
2019-01-28T21:39:10.722Z,2.73
2019-01-28T21:41:40.254Z,2.60
2019-01-28T21:44:09.763Z,2.70
2019-01-28T21:46:39.502Z,2.37
2019-01-28T21:49:08.979Z,2.57
2019-01-28T21:51:38.617Z,2.33
2019-01-28T21:54:08.196Z,2.50
2019-01-28T21:56:37.695Z,2.20
2019-01-28T21:59:07.310Z,2.80
2019-01-28T22:01:36.959Z,2.20
2019-01-28T22:04:06.593Z,1.93
2019-01-28T22:06:36.116Z,2.03
2019-01-28T22:09:08.942Z,2.00
2019-01-28T22:11:38.425Z,2.40
2019-01-28T22:14:08.069Z,1.90
2019-01-28T22:16:37.605Z,1.80
2019-01-28T22:19:07.069Z,2.20
2019-01-28T22:21:36.570Z,2.17
2019-01-28T22:24:06.284Z,1.70
2019-01-28T22:26:35.915Z,1.83
2019-01-28T22:29:05.756Z,2.27
2019-01-28T22:31:35.246Z,1.80
2019-01-28T22:34:04.909Z,1.93
2019-01-28T22:36:34.445Z,2.17
2019-01-28T22:39:05.579Z,2.10
2019-01-28T22:41:35.225Z,1.80
2019-01-28T22:44:05.171Z,2.07
2019-01-28T22:46:34.662Z,2.00
2019-01-28T22:49:04.185Z,2.17
2019-01-28T22:51:33.756Z,2.43
2019-01-28T22:54:03.312Z,2.53
2019-01-28T22:56:32.826Z,2.23
2019-01-28T22:59:02.309Z,2.33
2019-01-28T23:01:32.454Z,2.53
2019-01-28T23:04:01.960Z,2.50
2019-01-28T23:06:31.449Z,2.67
2019-01-28T23:09:00.993Z,3.17
2019-01-28T23:11:30.524Z,2.67
2019-01-28T23:14:00.074Z,2.63
2019-01-28T23:16:29.536Z,2.93
2019-01-28T23:18:59.028Z,2.67
2019-01-28T23:21:28.492Z,2.77
2019-01-28T23:23:58.054Z,3.57
2019-01-28T23:26:27.614Z,2.97
2019-01-28T23:28:57.083Z,3.23
2019-01-28T23:31:26.705Z,2.80
2019-01-28T23:33:56.197Z,2.80
2019-01-28T23:36:25.793Z,3.00
2019-01-28T23:38:55.310Z,2.93
2019-01-28T23:41:24.804Z,2.60
2019-01-28T23:43:54.362Z,3.03
2019-01-28T23:46:24.594Z,3.03
2019-01-28T23:48:54.167Z,2.80
2019-01-28T23:51:23.618Z,3.20
2019-01-28T23:53:53.170Z,2.67
2019-01-28T23:56:22.694Z,3.37
2019-01-28T23:58:52.192Z,2.80
